Time;durP1;ratioP1;P1;durP2;ratioP2;P2;SDS_P1;SDS_P2;PMS_P1;PMS_P2;Temp;Humidity;BMP_temperature;BMP_pressure;BME280_temperature;BME280_humidity;BME280_pressure;Samples;Min_cycle;Max_cycle;Signal;HPM_P1;HPM_P2
2022/09/09 00:02:18;;;;;;;34.75;21.52;;;13.60;99.90;;;;;;5035686;28;20491;-26
2022/09/09 00:05:04;;;;;;;38.53;20.85;;;13.10;99.90;;;;;;5036759;28;20055;-26
2022/09/09 00:08:03;;;;;;;36.05;21.02;;;13.00;99.90;;;;;;5036222;28;20046;-26
2022/09/09 00:10:40;;;;;;;31.52;20.65;;;13.40;99.90;;;;;;5013457;28;20061;-27
2022/09/09 00:13:30;;;;;;;27.48;20.48;;;12.70;99.90;;;;;;5035754;28;20558;-27
2022/09/09 00:16:17;;;;;;;30.10;20.30;;;12.60;99.90;;;;;;5036569;28;20064;-27
2022/09/09 00:19:06;;;;;;;36.85;21.95;;;13.30;99.90;;;;;;5034990;28;20053;-26
2022/09/09 00:21:58;;;;;;;36.85;21.02;;;13.30;99.90;;;;;;5032628;28;20053;-26
2022/09/09 00:24:35;;;;;;;36.22;21.80;;;13.10;99.90;;;;;;5035462;28;20399;-27
2022/09/09 00:27:06;;;;;;;39.28;21.40;;;12.50;99.90;;;;;;5035532;28;20041;-26
2022/09/09 00:29:42;;;;;;;30.85;19.50;;;12.80;99.90;;;;;;5035543;28;20056;-27
2022/09/09 00:32:18;;;;;;;32.63;20.35;;;12.60;99.90;;;;;;5017506;28;20191;-26
2022/09/09 00:34:52;;;;;;;41.60;22.20;;;13.20;99.90;;;;;;5035658;28;20518;-26
2022/09/09 00:37:21;;;;;;;38.95;22.60;;;12.80;99.90;;;;;;5035713;28;20057;-26
2022/09/09 00:39:49;;;;;;;40.97;23.38;;;12.90;99.90;;;;;;5034980;28;20061;-26
2022/09/09 00:42:31;;;;;;;35.13;22.05;;;13.10;99.90;;;;;;5034281;28;20053;-28
2022/09/09 00:45:20;;;;;;;36.92;21.58;;;12.50;99.90;;;;;;5035355;28;20403;-27
2022/09/09 00:47:50;;;;;;;37.47;21.98;;;12.50;99.90;;;;;;5024264;28;20569;-27
2022/09/09 00:50:43;;;;;;;29.67;19.90;;;12.50;99.90;;;;;;5034415;28;20388;-27
2022/09/09 00:53:29;;;;;;;34.65;21.17;;;13.20;99.90;;;;;;5035016;28;20053;-28
2022/09/09 00:56:21;;;;;;;37.75;21.45;;;12.80;99.90;;;;;;5035592;28;20048;-28
2022/09/09 00:59:15;;;;;;;40.55;22.17;;;13.00;99.90;;;;;;5034558;28;20128;-28
2022/09/09 01:01:41;;;;;;;37.30;20.58;;;13.00;99.90;;;;;;5049867;28;20084;-28
2022/09/09 01:04:16;;;;;;;32.95;20.42;;;12.60;99.90;;;;;;5034825;28;20060;-28
2022/09/09 01:06:44;;;;;;;37.80;22.92;;;12.80;99.90;;;;;;5035585;28;20044;-27
2022/09/09 01:09:51;;;;;;;37.53;23.10;;;12.20;99.90;;;;;;5034704;28;20045;-27
2022/09/09 01:12:41;;;;;;;38.88;22.80;;;12.80;99.90;;;;;;5034150;28;20365;-28
2022/09/09 01:15:12;;;;;;;40.53;23.30;;;12.50;99.90;;;;;;5035220;28;20049;-27
2022/09/09 01:17:49;;;;;;;44.10;23.58;;;12.90;99.90;;;;;;5034558;28;20049;-27
2022/09/09 01:20:28;;;;;;;32.42;22.00;;;12.10;99.90;;;;;;5034831;28;20064;-27
2022/09/09 01:23:03;;;;;;;41.80;23.60;;;12.50;99.90;;;;;;5034546;28;20049;-27
2022/09/09 01:25:44;;;;;;;37.60;22.25;;;12.00;99.90;;;;;;5034669;28;20041;-27
2022/09/09 01:28:31;;;;;;;40.35;22.60;;;12.60;99.90;;;;;;5034420;28;20045;-28
2022/09/09 01:30:58;;;;;;;44.30;24.17;;;12.60;99.90;;;;;;5034349;28;20053;-27
2022/09/09 01:33:24;;;;;;;37.08;20.85;;;12.80;99.90;;;;;;5034262;28;20518;-27
2022/09/09 01:36:21;;;;;;;38.40;21.60;;;12.70;99.90;;;;;;5034222;28;20042;-29
2022/09/09 01:38:47;;;;;;;46.08;24.73;;;12.90;99.90;;;;;;5034212;28;20057;-28
2022/09/09 01:41:12;;;;;;;35.55;20.85;;;12.10;99.90;;;;;;5033244;28;20056;-27
2022/09/09 01:43:38;;;;;;;30.90;20.05;;;12.90;99.90;;;;;;5032604;28;20546;-28
2022/09/09 01:46:04;;;;;;;35.92;21.95;;;12.10;99.90;;;;;;5034272;28;20045;-28
2022/09/09 01:48:31;;;;;;;29.88;19.60;;;12.90;99.90;;;;;;5033145;28;20139;-28
2022/09/09 01:50:57;;;;;;;26.98;18.75;;;12.90;99.90;;;;;;5016559;28;20041;-28
2022/09/09 01:53:22;;;;;;;33.80;19.08;;;12.30;99.90;;;;;;5034005;28;20050;-28
2022/09/09 01:56:14;;;;;;;29.50;19.48;;;12.10;99.90;;;;;;5033970;28;20068;-29
2022/09/09 01:58:57;;;;;;;30.20;17.65;;;12.40;99.90;;;;;;5033967;28;20076;-27
2022/09/09 02:01:41;;;;;;;28.02;17.98;;;12.10;99.90;;;;;;5032679;28;20049;-28
2022/09/09 02:04:35;;;;;;;29.98;19.42;;;12.10;99.90;;;;;;5033283;28;20053;-28
2022/09/09 02:07:01;;;;;;;31.63;18.10;;;12.50;99.90;;;;;;5034014;28;20046;-27
2022/09/09 02:09:29;;;;;;;26.77;18.52;;;12.50;99.90;;;;;;5033809;28;20049;-28
2022/09/09 02:12:18;;;;;;;26.05;17.58;;;12.70;99.90;;;;;;5033311;28;20465;-29
2022/09/09 02:14:54;;;;;;;27.65;18.25;;;12.20;99.90;;;;;;5034593;28;20050;-28
2022/09/09 02:17:29;;;;;;;26.90;18.33;;;12.20;99.90;;;;;;5033750;28;20042;-28
2022/09/09 02:20:09;;;;;;;32.67;20.23;;;12.20;99.90;;;;;;5033653;28;20427;-28
2022/09/09 02:22:39;;;;;;;33.22;19.38;;;12.90;99.90;;;;;;5033638;28;20044;-28
2022/09/09 02:25:08;;;;;;;29.55;18.00;;;12.70;99.90;;;;;;5033481;28;20046;-29
2022/09/09 02:27:35;;;;;;;34.38;22.25;;;13.20;99.90;;;;;;5033551;28;20513;-28
2022/09/09 02:30:03;;;;;;;32.78;19.40;;;12.80;99.90;;;;;;5033825;28;20046;-29
2022/09/09 02:32:35;;;;;;;35.83;20.23;;;13.30;99.90;;;;;;5033526;28;20052;-28
2022/09/09 02:35:06;;;;;;;33.38;21.33;;;13.50;99.90;;;;;;5032644;28;20049;-29
2022/09/09 02:37:36;;;;;;;37.58;23.17;;;13.30;99.90;;;;;;5034147;28;20099;-28
2022/09/09 02:40:07;;;;;;;39.53;23.42;;;13.30;99.90;;;;;;5033452;28;20056;-29
2022/09/09 02:42:43;;;;;;;32.88;21.45;;;13.50;99.90;;;;;;5033161;28;20526;-28
2022/09/09 02:45:11;;;;;;;43.00;24.08;;;13.10;99.90;;;;;;5031800;28;20450;-28
2022/09/09 02:48:03;;;;;;;35.90;22.77;;;12.90;99.90;;;;;;5015988;28;20059;-29
2022/09/09 02:50:49;;;;;;;33.90;20.95;;;12.90;99.90;;;;;;5033070;28;20454;-28
2022/09/09 02:53:23;;;;;;;34.50;20.63;;;13.50;99.90;;;;;;5032418;28;20479;-28
2022/09/09 02:55:58;;;;;;;32.78;20.05;;;13.80;99.90;;;;;;5019309;28;20099;-28
2022/09/09 02:58:24;;;;;;;31.75;19.20;;;13.70;99.90;;;;;;5036572;28;20083;-28
2022/09/09 03:00:50;;;;;;;27.02;19.60;;;13.70;99.90;;;;;;5037688;28;20049;-29
2022/09/09 03:03:18;;;;;;;28.00;19.42;;;13.20;99.90;;;;;;5036769;28;20389;-28
2022/09/09 03:05:44;;;;;;;32.35;18.85;;;13.80;99.90;;;;;;5036996;28;20092;-28
2022/09/09 03:08:11;;;;;;;25.98;16.58;;;13.20;99.90;;;;;;5035851;28;20403;-28
2022/09/09 03:10:36;;;;;;;27.35;18.20;;;13.70;99.90;;;;;;5036269;28;20080;-28
2022/09/09 03:13:04;;;;;;;27.10;19.02;;;14.00;99.90;;;;;;5037448;28;20084;-28
2022/09/09 03:15:30;;;;;;;26.42;17.10;;;14.00;99.90;;;;;;5036896;28;20396;-28
2022/09/09 03:17:57;;;;;;;28.10;17.95;;;13.30;99.90;;;;;;5035640;28;20479;-28
2022/09/09 03:20:27;;;;;;;31.55;19.30;;;14.00;99.90;;;;;;5036784;28;20071;-28
2022/09/09 03:22:54;;;;;;;29.42;18.33;;;14.10;99.90;;;;;;5052411;28;20119;-28
2022/09/09 03:25:22;;;;;;;26.92;17.58;;;14.00;99.90;;;;;;5037175;28;20428;-28
2022/09/09 03:27:48;;;;;;;27.48;18.45;;;14.00;99.90;;;;;;5035663;28;20064;-28
2022/09/09 03:30:15;;;;;;;27.95;18.33;;;14.00;99.90;;;;;;5035436;28;20609;-28
2022/09/09 03:32:41;;;;;;;33.80;19.05;;;14.10;99.90;;;;;;5036126;28;20076;-28
2022/09/09 03:35:07;;;;;;;30.48;19.17;;;13.30;99.90;;;;;;5036503;28;20471;-29
2022/09/09 03:37:33;;;;;;;29.48;18.52;;;14.00;99.90;;;;;;5036691;28;20480;-28
2022/09/09 03:39:59;;;;;;;30.35;18.60;;;13.10;99.90;;;;;;5036370;28;20149;-29
2022/09/09 03:42:25;;;;;;;29.77;18.02;;;13.70;99.90;;;;;;5036095;28;20488;-28
2022/09/09 03:44:51;;;;;;;24.92;17.40;;;13.80;99.90;;;;;;5036199;28;20049;-28
2022/09/09 03:47:18;;;;;;;32.40;19.42;;;13.10;99.90;;;;;;5036330;28;20119;-28
2022/09/09 03:49:44;;;;;;;30.52;17.65;;;13.20;99.90;;;;;;5036264;28;20049;-29
2022/09/09 03:52:10;;;;;;;32.80;19.27;;;13.50;99.90;;;;;;5036243;28;20046;-28
2022/09/09 03:54:36;;;;;;;28.90;16.88;;;13.70;99.90;;;;;;5036013;28;20053;-28
2022/09/09 03:57:02;;;;;;;27.55;17.20;;;13.10;99.90;;;;;;5034570;28;20049;-28
2022/09/09 03:59:28;;;;;;;28.13;17.88;;;13.00;99.90;;;;;;5036634;28;20052;-29
2022/09/09 04:01:54;;;;;;;29.70;16.55;;;13.90;99.90;;;;;;5018635;28;20049;-28
2022/09/09 04:04:20;;;;;;;27.70;17.17;;;13.30;99.90;;;;;;5035999;28;20053;-28
2022/09/09 04:06:48;;;;;;;31.15;18.17;;;13.10;99.90;;;;;;5035725;28;20045;-29
2022/09/09 04:09:14;;;;;;;24.52;15.63;;;13.50;99.90;;;;;;5034967;28;20099;-30
2022/09/09 04:11:40;;;;;;;27.27;16.02;;;13.80;99.90;;;;;;5035894;28;20103;-30
2022/09/09 04:14:06;;;;;;;21.42;15.00;;;13.20;99.90;;;;;;5035816;28;20045;-29
2022/09/09 04:16:37;;;;;;;23.95;15.30;;;14.10;99.90;;;;;;5035400;28;20049;-28
2022/09/09 04:19:07;;;;;;;29.42;16.50;;;14.00;99.90;;;;;;5035741;28;20487;-30
2022/09/09 04:21:33;;;;;;;25.08;14.27;;;13.90;99.90;;;;;;5018309;28;20045;-29
2022/09/09 04:23:58;;;;;;;19.98;13.75;;;13.40;99.90;;;;;;5035187;28;20501;-29
2022/09/09 04:26:24;;;;;;;25.02;14.15;;;14.10;99.90;;;;;;5035552;28;20049;-29
2022/09/09 04:28:50;;;;;;;24.90;13.40;;;14.20;99.90;;;;;;5035590;28;20049;-29
2022/09/09 04:31:22;;;;;;;22.85;13.95;;;14.20;99.90;;;;;;5035457;28;20507;-28
2022/09/09 04:33:49;;;;;;;20.48;12.60;;;14.00;99.90;;;;;;5035513;28;20132;-28
2022/09/09 04:36:16;;;;;;;21.73;12.95;;;13.30;99.90;;;;;;5035365;28;20050;-29
2022/09/09 04:38:41;;;;;;;22.70;13.20;;;13.80;99.90;;;;;;5034896;28;20115;-30
2022/09/09 04:41:07;;;;;;;26.65;14.05;;;13.70;99.90;;;;;;5035858;28;20431;-29
2022/09/09 04:43:34;;;;;;;22.50;12.40;;;14.10;99.90;;;;;;5035114;28;20049;-28
2022/09/09 04:46:00;;;;;;;22.02;13.23;;;13.40;99.90;;;;;;5033946;28;20095;-29
2022/09/09 04:48:26;;;;;;;27.67;14.15;;;14.20;99.90;;;;;;5035993;28;20053;-28
2022/09/09 04:51:01;;;;;;;18.75;12.93;;;14.00;99.90;;;;;;5035380;28;20049;-28
2022/09/09 04:53:26;;;;;;;18.92;12.25;;;14.30;99.90;;;;;;5035965;28;20163;-29
2022/09/09 04:56:21;;;;;;;20.02;13.00;;;13.90;99.90;;;;;;5035564;28;20479;-29
2022/09/09 04:58:47;;;;;;;20.30;12.48;;;13.90;99.90;;;;;;5031030;28;20085;-29
2022/09/09 05:01:19;;;;;;;18.65;12.50;;;14.30;99.90;;;;;;5033649;28;20423;-29
2022/09/09 05:03:45;;;;;;;21.30;12.23;;;13.50;99.90;;;;;;5034826;28;20063;-29
2022/09/09 05:06:19;;;;;;;21.17;13.25;;;13.80;99.90;;;;;;5035236;28;20049;-29
2022/09/09 05:08:45;;;;;;;19.38;12.35;;;13.40;99.90;;;;;;5033428;28;20050;-29
2022/09/09 05:11:23;;;;;;;22.38;13.00;;;13.50;99.90;;;;;;5033489;28;20128;-29
2022/09/09 05:13:50;;;;;;;21.25;13.35;;;13.40;99.90;;;;;;5035527;28;20392;-29
2022/09/09 05:16:16;;;;;;;22.75;11.88;;;14.30;99.90;;;;;;5033282;28;20047;-29
2022/09/09 05:18:42;;;;;;;21.58;13.23;;;14.20;99.90;;;;;;5033848;28;20487;-29
2022/09/09 05:21:09;;;;;;;26.88;13.75;;;13.40;99.90;;;;;;5035000;28;20128;-29
2022/09/09 05:23:36;;;;;;;22.58;13.60;;;14.20;99.90;;;;;;5017019;28;20049;-29
2022/09/09 05:26:03;;;;;;;22.35;12.82;;;14.20;99.90;;;;;;5034364;28;20095;-30
2022/09/09 05:28:30;;;;;;;23.20;14.32;;;13.80;99.90;;;;;;5033248;28;20045;-29
2022/09/09 05:31:00;;;;;;;23.65;13.75;;;14.30;99.90;;;;;;5033233;28;20057;-29
2022/09/09 05:33:27;;;;;;;24.17;14.27;;;13.60;99.90;;;;;;5033686;28;20128;-29
2022/09/09 05:35:58;;;;;;;19.58;13.55;;;13.50;99.90;;;;;;5034539;28;20048;-29
2022/09/09 05:38:26;;;;;;;24.58;13.68;;;13.70;99.90;;;;;;5034225;28;20061;-29
2022/09/09 05:40:53;;;;;;;23.17;14.07;;;14.30;99.90;;;;;;5016946;28;20045;-29
2022/09/09 05:43:19;;;;;;;25.25;14.38;;;13.80;99.90;;;;;;5033564;28;20133;-29
2022/09/09 05:45:47;;;;;;;20.85;13.60;;;14.30;99.90;;;;;;5032930;28;20537;-29
2022/09/09 05:48:15;;;;;;;28.42;15.43;;;14.10;99.90;;;;;;5034051;28;20483;-29
2022/09/09 05:50:42;;;;;;;24.90;14.20;;;14.00;99.90;;;;;;5034063;28;20115;-29
2022/09/09 05:53:09;;;;;;;24.50;14.65;;;14.00;99.90;;;;;;5034000;28;20053;-29
2022/09/09 05:55:35;;;;;;;24.42;14.50;;;14.10;99.90;;;;;;5034131;28;20052;-29
2022/09/09 05:58:01;;;;;;;21.25;13.32;;;14.00;99.90;;;;;;5033924;28;20046;-29
2022/09/09 06:00:27;;;;;;;18.85;14.10;;;13.90;99.90;;;;;;5034437;28;20046;-29
2022/09/09 06:02:53;;;;;;;28.13;15.20;;;14.20;99.90;;;;;;5034647;28;20103;-30
2022/09/09 06:05:19;;;;;;;24.90;15.63;;;13.70;99.90;;;;;;5033193;28;20084;-29
2022/09/09 06:07:45;;;;;;;27.20;15.65;;;14.30;99.90;;;;;;5034046;28;20135;-29
2022/09/09 06:10:13;;;;;;;23.77;15.35;;;14.10;99.90;;;;;;5032522;28;20479;-31
2022/09/09 06:12:39;;;;;;;25.98;17.10;;;14.00;99.90;;;;;;5034236;28;20053;-29
2022/09/09 06:15:05;;;;;;;21.88;15.18;;;14.30;99.90;;;;;;5033710;28;20052;-29
2022/09/09 06:17:31;;;;;;;25.20;15.00;;;13.80;99.90;;;;;;5033666;28;20513;-30
2022/09/09 06:19:57;;;;;;;24.33;15.27;;;14.40;99.90;;;;;;5034200;28;20049;-29
2022/09/09 06:22:23;;;;;;;23.35;15.73;;;14.00;99.90;;;;;;5033726;28;20532;-29
2022/09/09 06:24:48;;;;;;;23.60;15.82;;;14.30;99.90;;;;;;5033639;28;20132;-29
2022/09/09 06:27:14;;;;;;;25.33;15.80;;;14.30;99.90;;;;;;5033499;28;20408;-29
2022/09/09 06:29:40;;;;;;;23.48;14.90;;;14.10;99.90;;;;;;5034973;28;20172;-33
2022/09/09 06:32:08;;;;;;;21.95;14.60;;;14.20;99.90;;;;;;5036458;28;20085;-29
2022/09/09 06:34:35;;;;;;;26.08;15.15;;;14.20;99.90;;;;;;5037623;28;20056;-29
2022/09/09 06:37:01;;;;;;;23.33;14.80;;;14.40;99.90;;;;;;5038154;28;20045;-30
2022/09/09 06:39:26;;;;;;;22.50;15.27;;;14.30;99.90;;;;;;5038175;28;20594;-29
2022/09/09 06:41:53;;;;;;;25.33;13.43;;;14.40;99.90;;;;;;5037782;28;20055;-30
2022/09/09 06:44:19;;;;;;;22.58;13.23;;;14.60;99.90;;;;;;5037409;28;20057;-30
2022/09/09 06:46:47;;;;;;;18.83;12.98;;;14.90;99.90;;;;;;5036183;28;20041;-30
2022/09/09 06:49:13;;;;;;;19.23;12.30;;;14.70;99.90;;;;;;5037384;28;20402;-30
2022/09/09 06:51:42;;;;;;;17.95;12.65;;;15.10;99.90;;;;;;5035974;28;20052;-30
2022/09/09 06:54:09;;;;;;;18.75;11.55;;;15.00;99.90;;;;;;5037869;28;20053;-30
2022/09/09 06:56:41;;;;;;;13.75;11.02;;;15.10;99.90;;;;;;5037508;28;20049;-30
2022/09/09 06:59:09;;;;;;;15.55;11.27;;;14.90;99.90;;;;;;5036059;28;20068;-31
2022/09/09 07:01:51;;;;;;;18.58;10.25;;;14.90;99.90;;;;;;5036197;28;20067;-30
2022/09/09 07:04:17;;;;;;;13.77;9.70;;;15.30;99.90;;;;;;5037215;28;20041;-31
2022/09/09 07:06:45;;;;;;;15.13;11.88;;;15.20;99.90;;;;;;5019273;28;20095;-30
2022/09/09 07:09:13;;;;;;;13.68;10.25;;;15.20;99.90;;;;;;5036069;28;20041;-30
2022/09/09 07:11:44;;;;;;;14.82;9.23;;;15.20;99.90;;;;;;5036962;28;20072;-30
2022/09/09 07:14:13;;;;;;;13.45;8.52;;;15.00;99.90;;;;;;5037726;28;20045;-30
2022/09/09 07:16:43;;;;;;;13.55;8.88;;;15.20;99.90;;;;;;5036883;28;20072;-31
2022/09/09 07:19:10;;;;;;;11.77;9.55;;;15.20;99.90;;;;;;5019399;28;20060;-30
2022/09/09 07:21:36;;;;;;;16.90;10.63;;;15.20;99.90;;;;;;5035876;28;20124;-31
2022/09/09 07:24:02;;;;;;;12.70;8.65;;;15.10;99.90;;;;;;5036787;28;20125;-31
2022/09/09 07:26:30;;;;;;;11.95;8.30;;;15.20;99.90;;;;;;5035822;28;20038;-32
2022/09/09 07:28:57;;;;;;;13.93;9.63;;;15.30;99.90;;;;;;5037276;28;20181;-30
2022/09/09 07:31:29;;;;;;;11.07;9.13;;;15.40;99.90;;;;;;5037455;28;20052;-30
2022/09/09 07:33:55;;;;;;;13.48;9.90;;;15.40;99.90;;;;;;5036588;28;20046;-30
2022/09/09 07:36:27;;;;;;;12.05;7.85;;;15.50;99.90;;;;;;5036481;28;20045;-30
2022/09/09 07:39:19;;;;;;;11.43;8.85;;;15.60;99.90;;;;;;5036572;28;20080;-31
2022/09/09 07:41:48;;;;;;;9.95;7.43;;;15.60;4.80;;;;;;5033088;28;20054;-31
2022/09/09 07:44:17;;;;;;;10.23;8.20;;;15.70;99.90;;;;;;5036479;28;20119;-31
2022/09/09 07:46:44;;;;;;;12.02;7.50;;;15.80;99.90;;;;;;5035090;28;20046;-31
2022/09/09 07:49:11;;;;;;;15.23;7.30;;;15.80;95.70;;;;;;5036299;28;20049;-31
2022/09/09 07:51:42;;;;;;;10.45;7.35;;;15.90;19.80;;;;;;5036251;28;20187;-31
2022/09/09 07:54:10;;;;;;;11.02;6.57;;;15.90;1.00;;;;;;5036256;28;20046;-31
2022/09/09 07:56:37;;;;;;;10.40;7.50;;;16.00;1.00;;;;;;5036132;28;20037;-31
2022/09/09 07:59:06;;;;;;;14.80;7.93;;;16.00;1.00;;;;;;5036636;28;20056;-31
2022/09/09 08:01:40;;;;;;;7.43;6.20;;;16.10;1.00;;;;;;5036082;28;20041;-31
2022/09/09 08:04:08;;;;;;;8.68;7.07;;;16.10;1.00;;;;;;5035998;28;20060;-32
2022/09/09 08:06:39;;;;;;;8.55;6.57;;;16.30;1.00;;;;;;5035918;28;20042;-31
2022/09/09 08:09:07;;;;;;;10.93;6.50;;;16.30;99.90;;;;;;5036725;28;20072;-31
2022/09/09 08:11:33;;;;;;;9.13;6.18;;;16.40;1.00;;;;;;5034710;28;20060;-31
2022/09/09 08:14:00;;;;;;;10.68;6.43;;;16.50;99.90;;;;;;5035785;28;20045;-31
2022/09/09 08:16:29;;;;;;;8.63;6.72;;;16.60;99.90;;;;;;5036381;28;20045;-31
2022/09/09 08:18:55;;;;;;;11.05;6.22;;;16.70;99.90;;;;;;5035740;28;20120;-31
2022/09/09 08:21:24;;;;;;;10.10;6.55;;;16.80;1.00;;;;;;5035739;28;20052;-32
2022/09/09 08:23:53;;;;;;;10.38;6.18;;;16.90;99.90;;;;;;5035674;28;20136;-31
2022/09/09 08:26:24;;;;;;;8.82;5.68;;;17.00;99.90;;;;;;5035504;28;20049;-31
2022/09/09 08:28:52;;;;;;;10.07;6.00;;;16.90;1.00;;;;;;5036209;28;20045;-31
2022/09/09 08:31:20;;;;;;;10.00;5.45;;;17.00;1.00;;;;;;5035543;28;20045;-31
2022/09/09 08:33:46;;;;;;;7.50;5.60;;;17.00;1.00;;;;;;5035485;28;20120;-31
2022/09/09 08:36:15;;;;;;;9.50;5.43;;;17.10;40.70;;;;;;5035955;28;20049;-31
2022/09/09 08:38:47;;;;;;;9.73;5.05;;;17.30;23.20;;;;;;5035635;28;20110;-32
2022/09/09 08:41:59;;;;;;;7.53;4.87;;;17.30;1.00;;;;;;5035443;28;20468;-31
2022/09/09 08:44:34;;;;;;;7.20;5.00;;;17.40;88.80;;;;;;5035753;28;20685;-31
2022/09/09 08:47:22;;;;;;;10.00;4.43;;;17.40;99.90;;;;;;5035141;28;20495;-31
2022/09/09 08:50:06;;;;;;;11.10;5.40;;;17.40;99.90;;;;;;5036002;28;20045;-31
2022/09/09 08:53:09;;;;;;;9.05;5.05;;;17.40;99.90;;;;;;5033872;28;20099;-32
2022/09/09 08:56:00;;;;;;;7.63;5.03;;;17.50;99.90;;;;;;5035875;28;20045;-32
2022/09/09 08:58:32;;;;;;;8.93;5.43;;;17.40;99.90;;;;;;5035543;28;20182;-31
2022/09/09 09:01:32;;;;;;;9.65;5.18;;;17.50;99.90;;;;;;5035262;28;20485;-31
2022/09/09 09:04:32;;;;;;;7.20;5.18;;;17.60;99.90;;;;;;5033714;28;20057;-31
2022/09/09 09:07:28;;;;;;;8.25;5.03;;;17.60;99.90;;;;;;5034737;28;20052;-32
2022/09/09 09:10:05;;;;;;;9.27;4.70;;;17.70;77.20;;;;;;5035356;28;20103;-32
2022/09/09 09:12:40;;;;;;;17.25;5.63;;;17.80;99.90;;;;;;5034763;28;20045;-32
2022/09/09 09:15:30;;;;;;;16.83;4.95;;;18.00;91.50;;;;;;5017561;28;20056;-31
2022/09/09 09:17:57;;;;;;;12.05;4.03;;;18.00;99.90;;;;;;5034683;28;20053;-32
2022/09/09 09:20:58;;;;;;;8.80;3.95;;;18.10;2.20;;;;;;5034621;28;20403;-31
2022/09/09 09:23:30;;;;;;;12.02;4.43;;;18.30;99.90;;;;;;5031582;28;20132;-32
2022/09/09 09:26:00;;;;;;;7.13;3.50;;;18.50;1.00;;;;;;5034468;28;20080;-32
2022/09/09 09:28:29;;;;;;;6.28;3.30;;;18.70;92.70;;;;;;5034409;28;20096;-31
2022/09/09 09:31:03;;;;;;;8.88;3.70;;;19.10;99.90;;;;;;5033220;28;20107;-31
2022/09/09 09:33:46;;;;;;;9.27;3.13;;;19.80;82.40;;;;;;5034956;28;20077;-32
2022/09/09 09:36:15;;;;;;;6.38;2.97;;;20.10;2.40;;;;;;5034369;28;20041;-31
2022/09/09 09:38:53;;;;;;;10.45;2.90;;;20.20;99.90;;;;;;5034104;28;20057;-32
2022/09/09 09:41:35;;;;;;;9.50;2.53;;;20.00;68.80;;;;;;5017367;28;20107;-31
2022/09/09 09:44:02;;;;;;;8.77;2.30;;;20.20;99.90;;;;;;5033860;28;20041;-32
2022/09/09 09:46:28;;;;;;;7.57;2.45;;;20.30;99.90;;;;;;5034089;28;20124;-32
2022/09/09 09:49:13;;;;;;;11.23;2.55;;;20.80;99.90;;;;;;5034147;28;20073;-32
2022/09/09 09:51:40;;;;;;;8.80;2.10;;;21.70;99.90;;;;;;5017487;28;20353;-32
2022/09/09 09:54:25;;;;;;;8.18;2.20;;;22.60;37.00;;;;;;5016581;28;20495;-32
2022/09/09 09:56:51;;;;;;;8.45;2.08;;;23.10;1.00;;;;;;5034302;28;20119;-31
2022/09/09 09:59:25;;;;;;;11.88;2.58;;;23.30;1.70;;;;;;5032785;28;20483;-33
2022/09/09 10:01:51;;;;;;;10.13;2.53;;;23.20;99.90;;;;;;5033956;28;20107;-32
2022/09/09 10:04:20;;;;;;;6.82;2.15;;;22.10;1.00;;;;;;5033696;28;20041;-31
2022/09/09 10:06:46;;;;;;;7.65;2.45;;;21.20;19.70;;;;;;5033800;28;20045;-32
2022/09/09 10:09:28;;;;;;;7.30;2.08;;;20.60;99.90;;;;;;5033810;28;20128;-32
2022/09/09 10:12:06;;;;;;;9.73;2.20;;;20.60;99.90;;;;;;5034106;28;20403;-33
2022/09/09 10:14:49;;;;;;;10.30;1.90;;;20.50;1.00;;;;;;5034349;28;20045;-32
2022/09/09 10:17:36;;;;;;;9.20;2.25;;;20.20;99.90;;;;;;5034569;28;20049;-32
2022/09/09 10:20:27;;;;;;;8.43;2.35;;;20.10;93.40;;;;;;5033176;28;20099;-32
2022/09/09 10:23:12;;;;;;;11.20;2.10;;;19.70;99.90;;;;;;5032472;28;20063;-32
2022/09/09 10:25:56;;;;;;;10.32;1.77;;;19.50;99.90;;;;;;5033572;28;20037;-32
2022/09/09 10:28:28;;;;;;;7.53;2.30;;;19.50;1.00;;;;;;5015975;28;20049;-32
2022/09/09 10:31:20;;;;;;;8.05;2.15;;;19.80;1.00;;;;;;5016114;28;20543;-33
2022/09/09 10:33:48;;;;;;;10.30;1.95;;;20.10;1.00;;;;;;5033087;28;20069;-33
2022/09/09 10:36:21;;;;;;;9.77;2.65;;;20.40;1.00;;;;;;5016959;28;20487;-33
2022/09/09 10:38:52;;;;;;;8.18;1.90;;;20.50;99.90;;;;;;5015930;28;20058;-33
2022/09/09 10:41:54;;;;;;;8.00;1.65;;;20.50;1.00;;;;;;5034059;28;20051;-33
2022/09/09 10:44:46;;;;;;;6.40;1.97;;;20.20;99.90;;;;;;5033461;28;20053;-33
2022/09/09 10:47:23;;;;;;;13.93;2.85;;;19.80;1.00;;;;;;5033922;28;20046;-33
2022/09/09 10:50:31;;;;;;;11.35;2.42;;;19.70;99.90;;;;;;5034252;28;20088;-33
2022/09/09 10:53:13;;;;;;;9.90;2.78;;;19.80;85.40;;;;;;5033956;28;20053;-33
2022/09/09 10:55:42;;;;;;;4.53;1.55;;;20.90;99.90;;;;;;5034023;28;20037;-33
2022/09/09 10:58:23;;;;;;;7.45;1.77;;;22.10;99.90;;;;;;5033854;28;20490;-34
2022/09/09 11:00:57;;;;;;;4.95;1.77;;;21.90;1.00;;;;;;5015909;28;20046;-33
2022/09/09 11:03:29;;;;;;;5.13;1.52;;;21.60;3.60;;;;;;5033316;28;20041;-33
2022/09/09 11:06:05;;;;;;;9.60;1.93;;;21.30;24.90;;;;;;5031960;28;20111;-34
2022/09/09 11:08:34;;;;;;;6.95;1.52;;;21.00;7.40;;;;;;5033799;28;20815;-34
2022/09/09 11:11:24;;;;;;;4.45;1.27;;;20.60;1.00;;;;;;5033797;28;20053;-34
2022/09/09 11:13:54;;;;;;;5.70;1.30;;;20.40;1.00;;;;;;5033811;28;20085;-34
2022/09/09 11:16:47;;;;;;;5.68;1.50;;;20.60;95.30;;;;;;5035954;28;20049;-33
2022/09/09 11:19:35;;;;;;;6.65;1.13;;;21.30;1.00;;;;;;5036934;28;20042;-35
2022/09/09 11:22:23;;;;;;;7.97;1.58;;;22.20;99.90;;;;;;5019138;28;20089;-34
2022/09/09 11:25:17;;;;;;;10.98;1.75;;;21.70;48.20;;;;;;5037440;28;20081;-34
2022/09/09 11:28:17;;;;;;;6.30;1.30;;;21.70;99.90;;;;;;5036777;28;20089;-34
2022/09/09 11:30:42;;;;;;;7.93;1.75;;;22.20;1.00;;;;;;5036619;28;20045;-37
2022/09/09 11:33:21;;;;;;;7.18;1.42;;;22.40;99.90;;;;;;5035646;28;20129;-38
2022/09/09 11:36:00;;;;;;;6.38;1.60;;;23.10;1.00;;;;;;5035911;28;20057;-38
2022/09/09 11:38:52;;;;;;;6.88;1.60;;;23.40;1.00;;;;;;5035219;28;20053;-38
2022/09/09 11:41:20;;;;;;;6.28;1.17;;;22.60;1.00;;;;;;5033759;28;20050;-38
2022/09/09 11:43:53;;;;;;;7.13;1.65;;;21.70;1.00;;;;;;5036897;28;20046;-39
2022/09/09 11:46:22;;;;;;;7.22;1.40;;;21.20;1.00;;;;;;5035170;28;20112;-39
2022/09/09 11:49:03;;;;;;;6.28;1.35;;;21.00;99.90;;;;;;5035360;28;20048;-38
2022/09/09 11:51:31;;;;;;;7.30;1.38;;;20.80;99.90;;;;;;5036238;28;20128;-38
2022/09/09 11:54:01;;;;;;;6.95;0.98;;;20.70;99.90;;;;;;5036180;28;20045;-38
2022/09/09 11:56:34;;;;;;;6.10;1.48;;;20.80;99.90;;;;;;5036206;28;20488;-39
2022/09/09 11:59:21;;;;;;;4.80;1.33;;;20.80;99.90;;;;;;5035495;28;20049;-40
2022/09/09 12:01:55;;;;;;;9.43;1.42;;;20.70;99.90;;;;;;5036079;28;20049;-40
2022/09/09 12:04:24;;;;;;;6.63;1.52;;;20.90;99.90;;;;;;5036156;28;20052;-41
2022/09/09 12:07:29;;;;;;;6.25;1.58;;;20.80;99.90;;;;;;5034750;28;20041;-40
2022/09/09 12:10:05;;;;;;;7.30;1.40;;;20.90;1.00;;;;;;5035996;28;20160;-40
2022/09/09 12:12:43;;;;;;;4.28;1.15;;;21.20;99.90;;;;;;5035860;28;20045;-40
2022/09/09 12:15:09;;;;;;;5.25;1.17;;;21.30;99.90;;;;;;5035886;28;20049;-40
2022/09/09 12:17:45;;;;;;;5.18;0.98;;;21.60;99.90;;;;;;5036069;28;20064;-40
2022/09/09 12:20:34;;;;;;;7.05;1.95;;;21.60;99.90;;;;;;5036635;28;20135;-40
2022/09/09 12:23:20;;;;;;;5.35;1.20;;;21.40;64.30;;;;;;5035715;28;20080;-40
2022/09/09 12:25:55;;;;;;;5.80;1.20;;;21.50;99.90;;;;;;5034972;28;20041;-41
2022/09/09 12:28:50;;;;;;;6.30;1.13;;;21.20;99.90;;;;;;5035026;28;20053;-41
2022/09/09 12:31:34;;;;;;;5.13;1.05;;;20.90;1.00;;;;;;5035854;28;20049;-41
2022/09/09 12:34:17;;;;;;;6.72;1.42;;;20.50;99.90;;;;;;5035238;28;20492;-39
2022/09/09 12:36:46;;;;;;;8.77;2.33;;;20.40;99.90;;;;;;5036289;28;20116;-41
2022/09/09 12:39:17;;;;;;;4.28;1.20;;;20.30;1.00;;;;;;5035006;28;20168;-41
2022/09/09 12:41:56;;;;;;;11.13;2.00;;;20.30;99.90;;;;;;5035921;28;20049;-41
2022/09/09 12:44:22;;;;;;;5.47;1.58;;;20.40;99.90;;;;;;5036098;28;20068;-41
2022/09/09 12:46:48;;;;;;;9.48;1.30;;;21.10;1.00;;;;;;5033992;28;20045;-41
2022/09/09 12:49:41;;;;;;;7.30;1.27;;;21.80;48.40;;;;;;5035200;28;20369;-42
2022/09/09 12:52:24;;;;;;;5.53;1.42;;;22.50;99.90;;;;;;5032172;28;20487;-42
2022/09/09 12:54:51;;;;;;;5.13;1.35;;;22.90;99.90;;;;;;5034785;28;20084;-42
2022/09/09 12:57:17;;;;;;;6.00;1.27;;;22.70;99.90;;;;;;5035589;28;20049;-42
2022/09/09 12:59:51;;;;;;;5.82;1.52;;;22.60;99.90;;;;;;5034991;28;20076;-42
2022/09/09 13:02:27;;;;;;;5.43;1.38;;;22.30;99.90;;;;;;5034663;28;20483;-42
2022/09/09 13:04:54;;;;;;;9.52;2.05;;;22.20;99.90;;;;;;5035276;28;20057;-41
2022/09/09 13:07:21;;;;;;;5.90;1.35;;;22.50;99.90;;;;;;5035346;28;20107;-41
2022/09/09 13:09:48;;;;;;;6.43;1.25;;;22.50;99.90;;;;;;5034603;28;20054;-42